Time;durP1;ratioP1;P1;durP2;ratioP2;P2;SDS_P1;SDS_P2;PMS_P1;PMS_P2;Temp;Humidity;BMP_temperature;BMP_pressure;BME280_temperature;BME280_humidity;BME280_pressure;Samples;Min_cycle;Max_cycle;Signal;HPM_P1;HPM_P2
2021/05/19 04:10:11;;;;;;;0.80;0.80;;;12.30;99.90;;;;;;6076845;23;20999;31
2021/05/19 04:12:39;;;;;;;0.80;0.80;;;12.20;99.90;;;;;;4952912;29;20221;-77
2021/05/19 04:15:07;;;;;;;0.70;0.70;;;12.20;99.90;;;;;;4956495;29;20197;-78
2021/05/19 04:17:35;;;;;;;0.80;0.80;;;12.10;99.90;;;;;;4954352;29;20202;-77
2021/05/19 04:20:03;;;;;;;0.88;0.88;;;12.10;99.90;;;;;;4955275;28;20256;-77
2021/05/19 04:22:30;;;;;;;0.70;0.70;;;12.10;99.90;;;;;;4936996;29;20222;-77
2021/05/19 04:24:58;;;;;;;0.70;0.70;;;12.00;99.90;;;;;;4974779;23;20243;-77
2021/05/19 04:27:26;;;;;;;0.70;0.70;;;12.00;99.90;;;;;;4979803;28;20204;-77
2021/05/19 04:29:53;;;;;;;0.80;0.80;;;12.00;99.90;;;;;;4982929;28;20232;-77
2021/05/19 04:32:21;;;;;;;0.70;0.70;;;12.00;99.90;;;;;;4981854;28;20620;-77
2021/05/19 04:34:49;;;;;;;0.80;0.80;;;12.00;99.90;;;;;;4986603;28;20312;-77
2021/05/19 04:37:16;;;;;;;0.70;0.70;;;11.90;99.90;;;;;;4985364;28;20625;-77
2021/05/19 04:39:44;;;;;;;0.70;0.70;;;12.00;99.90;;;;;;4986077;28;20259;-77
2021/05/19 04:42:11;;;;;;;0.73;0.73;;;12.00;99.90;;;;;;4985260;28;20205;-74
2021/05/19 04:44:40;;;;;;;0.70;0.70;;;12.10;99.90;;;;;;4976912;28;20275;-77
2021/05/19 04:47:07;;;;;;;0.70;0.70;;;11.90;99.90;;;;;;4978097;28;20575;-78
2021/05/19 04:49:34;;;;;;;0.70;0.70;;;12.00;99.90;;;;;;4978350;28;20209;-78
2021/05/19 04:52:02;;;;;;;0.73;0.73;;;11.90;99.90;;;;;;4978393;28;20739;-78
2021/05/19 04:54:29;;;;;;;0.70;0.70;;;11.90;99.90;;;;;;4982021;28;20221;-77
2021/05/19 04:56:57;;;;;;;0.70;0.70;;;12.00;99.90;;;;;;4977230;28;20288;-76
2021/05/19 04:59:24;;;;;;;0.60;0.60;;;12.00;99.90;;;;;;4973345;28;20196;-78
2021/05/19 05:01:52;;;;;;;0.70;0.70;;;12.00;99.90;;;;;;4964671;28;20240;-77
2021/05/19 05:04:20;;;;;;;0.80;0.80;;;12.10;99.90;;;;;;4961286;28;20276;-76
2021/05/19 05:06:47;;;;;;;0.80;0.80;;;11.90;99.90;;;;;;4976152;28;20192;-76
2021/05/19 05:09:15;;;;;;;0.80;0.80;;;11.90;99.90;;;;;;4971576;28;20209;-78
2021/05/19 05:11:42;;;;;;;0.70;0.70;;;11.90;99.90;;;;;;4978985;28;20211;-78
2021/05/19 05:14:09;;;;;;;0.80;0.80;;;11.90;99.90;;;;;;4978166;28;20239;-77
2021/05/19 05:16:37;;;;;;;0.80;0.80;;;11.80;99.90;;;;;;4977424;28;20661;-76
2021/05/19 05:19:05;;;;;;;0.80;0.80;;;11.90;99.90;;;;;;4977895;28;20212;-78
2021/05/19 05:21:33;;;;;;;0.70;0.70;;;11.90;99.90;;;;;;4978232;28;20294;-78
2021/05/19 05:24:01;;;;;;;0.80;0.80;;;11.90;99.90;;;;;;4977497;28;20228;-78
2021/05/19 05:26:28;;;;;;;0.70;0.70;;;11.90;99.90;;;;;;4977605;28;20207;-78
2021/05/19 05:28:56;;;;;;;0.70;0.70;;;12.50;99.90;;;;;;4978065;28;20218;-78
2021/05/19 05:31:23;;;;;;;0.70;0.70;;;12.10;99.90;;;;;;4977653;28;20251;-78
2021/05/19 05:33:51;;;;;;;0.73;0.73;;;12.20;99.90;;;;;;4978877;28;20293;-78
2021/05/19 05:36:19;;;;;;;0.80;0.80;;;12.20;99.90;;;;;;4978643;28;20211;-78
2021/05/19 05:38:47;;;;;;;0.73;0.73;;;12.30;99.90;;;;;;4978476;28;20224;-77
2021/05/19 05:41:14;;;;;;;0.70;0.70;;;12.50;99.90;;;;;;4978209;28;20205;-78
2021/05/19 05:43:41;;;;;;;0.73;0.73;;;12.60;99.90;;;;;;4978566;28;20204;-78
2021/05/19 05:46:09;;;;;;;0.60;0.60;;;12.70;99.90;;;;;;4978472;28;20297;-77
2021/05/19 05:48:37;;;;;;;0.70;0.70;;;12.50;99.90;;;;;;4978560;28;20220;-78
2021/05/19 05:51:09;;;;;;;0.80;0.80;;;12.70;99.90;;;;;;4978123;28;20201;-78
2021/05/19 05:53:38;;;;;;;0.70;0.70;;;12.70;99.90;;;;;;4977741;28;20208;-77
2021/05/19 05:56:05;;;;;;;0.70;0.70;;;12.80;99.90;;;;;;4964461;28;20200;-77
2021/05/19 05:58:33;;;;;;;0.70;0.70;;;12.90;99.90;;;;;;4957828;29;20666;-78
2021/05/19 06:01:00;;;;;;;0.70;0.70;;;12.80;99.90;;;;;;4958295;28;20205;-78
2021/05/19 06:03:28;;;;;;;0.70;0.70;;;12.70;99.90;;;;;;4964578;28;20248;-78
2021/05/19 06:05:55;;;;;;;0.65;0.65;;;13.00;99.90;;;;;;4967421;28;20232;-78
2021/05/19 06:08:22;;;;;;;0.60;0.60;;;12.80;99.90;;;;;;4958885;28;20618;-78
2021/05/19 06:10:51;;;;;;;0.70;0.70;;;12.80;99.90;;;;;;4959188;28;20209;-78
2021/05/19 06:13:18;;;;;;;0.60;0.60;;;13.20;99.90;;;;;;4959301;28;20209;-78
2021/05/19 06:15:45;;;;;;;0.70;0.70;;;12.90;99.90;;;;;;4957984;28;20228;-78
2021/05/19 06:18:13;;;;;;;0.60;0.60;;;13.00;99.90;;;;;;4958964;28;20211;-78
2021/05/19 06:20:40;;;;;;;0.70;0.70;;;12.80;99.90;;;;;;4958537;28;20741;-78
2021/05/19 06:23:08;;;;;;;0.70;0.70;;;12.70;99.90;;;;;;4958864;28;20605;-77
2021/05/19 06:25:35;;;;;;;0.70;0.70;;;12.90;99.90;;;;;;4957779;28;20304;-78
2021/05/19 06:28:04;;;;;;;0.60;0.60;;;12.90;99.90;;;;;;4958662;28;20213;-76
2021/05/19 06:30:32;;;;;;;0.73;0.73;;;12.90;99.90;;;;;;4958927;28;20201;-78
2021/05/19 06:32:59;;;;;;;0.70;0.70;;;13.00;99.90;;;;;;4958127;28;20296;-77
2021/05/19 06:35:27;;;;;;;0.60;0.60;;;13.10;99.90;;;;;;4958770;28;20590;-78
2021/05/19 06:37:54;;;;;;;0.60;0.60;;;13.00;99.90;;;;;;4959224;28;20262;-78
2021/05/19 06:40:22;;;;;;;0.70;0.70;;;13.10;99.90;;;;;;4959538;28;20209;-78
2021/05/19 06:42:50;;;;;;;0.70;0.70;;;13.30;99.90;;;;;;4957207;28;20233;-78
2021/05/19 06:45:18;;;;;;;0.70;0.70;;;13.50;99.90;;;;;;4958603;28;20229;-77
2021/05/19 06:47:45;;;;;;;0.70;0.70;;;13.30;99.90;;;;;;4958831;28;20256;-77
2021/05/19 06:50:13;;;;;;;0.70;0.70;;;13.40;99.90;;;;;;4958793;28;20201;-78
2021/05/19 06:52:41;;;;;;;0.70;0.70;;;13.40;99.90;;;;;;4958450;28;20205;-78
2021/05/19 06:55:10;;;;;;;0.70;0.70;;;13.20;99.90;;;;;;4958126;28;20272;-77
2021/05/19 06:57:37;;;;;;;0.73;0.73;;;13.30;99.90;;;;;;4958313;28;20205;-78
2021/05/19 07:00:07;;;;;;;0.80;0.80;;;13.10;99.90;;;;;;4957901;28;20201;-79
2021/05/19 07:02:37;;;;;;;0.70;0.70;;;13.10;99.90;;;;;;4958892;28;20225;-78
2021/05/19 07:05:05;;;;;;;0.70;0.70;;;13.40;99.90;;;;;;4965710;28;20225;-74
2021/05/19 07:07:33;;;;;;;0.70;0.70;;;13.40;99.90;;;;;;4960606;28;20201;-78
2021/05/19 07:10:01;;;;;;;0.73;0.73;;;12.90;99.90;;;;;;4957712;28;20213;-78
2021/05/19 07:12:28;;;;;;;0.70;0.70;;;12.80;99.90;;;;;;4957720;28;20213;-78
2021/05/19 07:14:58;;;;;;;0.70;0.70;;;12.60;99.90;;;;;;4963173;28;20230;-78
2021/05/19 07:17:26;;;;;;;0.70;0.70;;;12.50;99.90;;;;;;4967696;28;20205;-77
2021/05/19 07:19:54;;;;;;;0.80;0.80;;;12.50;99.90;;;;;;4964946;28;20271;-77
2021/05/19 07:22:22;;;;;;;0.80;0.80;;;12.40;99.90;;;;;;4963381;28;20279;-78
2021/05/19 07:24:50;;;;;;;0.70;0.70;;;12.40;99.90;;;;;;4961200;28;20267;-78
2021/05/19 07:27:17;;;;;;;0.80;0.80;;;12.60;99.90;;;;;;4957722;28;20207;-78
2021/05/19 07:29:45;;;;;;;0.60;0.60;;;12.20;99.90;;;;;;4957302;28;20205;-77
2021/05/19 07:32:12;;;;;;;0.80;0.80;;;12.30;99.90;;;;;;4956893;28;20260;-76
2021/05/19 07:34:40;;;;;;;0.80;0.80;;;12.20;99.90;;;;;;4957488;28;20330;-78
2021/05/19 07:37:08;;;;;;;0.70;0.70;;;12.10;99.90;;;;;;4957062;28;20205;-78
2021/05/19 07:39:35;;;;;;;0.70;0.70;;;12.20;99.90;;;;;;4956907;28;20209;-78
2021/05/19 07:42:03;;;;;;;0.60;0.60;;;12.30;99.90;;;;;;4956574;28;20625;-77
2021/05/19 07:44:30;;;;;;;0.70;0.70;;;12.30;99.90;;;;;;4956678;28;20225;-77
2021/05/19 07:46:57;;;;;;;0.70;0.70;;;12.10;99.90;;;;;;4956642;28;20236;-77
2021/05/19 07:49:24;;;;;;;0.70;0.70;;;12.00;99.90;;;;;;4956394;28;20197;-78
2021/05/19 07:51:50;;;;;;;0.80;0.80;;;12.10;99.90;;;;;;4956732;28;20202;-78
2021/05/19 07:54:24;;;;;;;0.80;0.80;;;12.20;99.90;;;;;;4958456;28;20724;-77
2021/05/19 07:56:54;;;;;;;0.80;0.80;;;11.90;99.90;;;;;;4960691;28;20203;-78
2021/05/19 07:59:23;;;;;;;0.70;0.70;;;11.80;99.90;;;;;;4960521;28;20198;-78
2021/05/19 08:02:01;;;;;;;0.70;0.70;;;11.80;99.90;;;;;;4960537;28;20336;-76
2021/05/19 08:04:28;;;;;;;0.90;0.90;;;11.80;99.90;;;;;;4960367;28;20217;-78
2021/05/19 08:06:54;;;;;;;0.80;0.80;;;11.70;99.90;;;;;;4959440;28;20272;-77
2021/05/19 08:09:21;;;;;;;0.80;0.80;;;11.70;99.90;;;;;;4958626;28;20201;-77
2021/05/19 08:11:48;;;;;;;0.70;0.70;;;11.70;99.90;;;;;;4959712;28;20225;-77
2021/05/19 08:14:15;;;;;;;0.80;0.80;;;11.60;99.90;;;;;;4961416;28;20769;-77
2021/05/19 08:16:41;;;;;;;0.80;0.80;;;11.60;99.90;;;;;;4964389;28;20573;-77
2021/05/19 08:19:07;;;;;;;0.80;0.80;;;11.60;99.90;;;;;;4962434;28;20197;-78
2021/05/19 08:21:35;;;;;;;0.80;0.80;;;11.70;99.90;;;;;;4964055;28;20209;-77
2021/05/19 08:24:03;;;;;;;0.80;0.80;;;11.80;99.90;;;;;;4964222;28;20241;-77
2021/05/19 08:26:31;;;;;;;0.80;0.80;;;11.50;99.90;;;;;;4961474;28;20225;-77
2021/05/19 08:28:59;;;;;;;0.80;0.80;;;11.50;99.90;;;;;;4958789;28;20209;-77
2021/05/19 08:31:26;;;;;;;0.80;0.80;;;11.40;99.90;;;;;;4958807;28;20209;-77
2021/05/19 08:34:09;;;;;;;0.82;0.82;;;11.40;99.90;;;;;;4964960;28;20233;-77
2021/05/19 08:36:36;;;;;;;0.70;0.70;;;11.30;99.90;;;;;;4972284;28;20209;-78
2021/05/19 08:39:04;;;;;;;0.80;0.80;;;11.40;99.90;;;;;;4962037;28;20205;-78
2021/05/19 08:41:33;;;;;;;0.80;0.80;;;11.40;99.90;;;;;;4958482;28;20217;-78
2021/05/19 08:44:00;;;;;;;0.80;0.80;;;11.30;99.90;;;;;;4957176;28;20646;-77
2021/05/19 08:46:28;;;;;;;0.80;0.80;;;11.30;99.90;;;;;;4956817;28;20567;-77
2021/05/19 08:49:02;;;;;;;0.90;0.90;;;11.20;99.90;;;;;;4957604;28;20210;-77
2021/05/19 08:51:29;;;;;;;0.80;0.80;;;11.20;99.90;;;;;;4958029;28;20209;-77
2021/05/19 08:53:56;;;;;;;0.80;0.80;;;11.40;99.90;;;;;;4958422;28;20292;-77
2021/05/19 08:56:24;;;;;;;0.70;0.70;;;11.40;99.90;;;;;;4959167;28;20799;-77
2021/05/19 08:58:52;;;;;;;0.80;0.80;;;11.50;99.90;;;;;;4959675;28;20212;-78
2021/05/19 09:01:20;;;;;;;0.80;0.80;;;11.40;99.90;;;;;;4958863;28;20268;-78
2021/05/19 09:04:01;;;;;;;0.80;0.80;;;11.70;99.90;;;;;;4959437;28;20260;-77
2021/05/19 09:06:34;;;;;;;0.80;0.80;;;11.70;99.90;;;;;;4957382;28;20316;-77
2021/05/19 09:09:20;;;;;;;0.80;0.80;;;11.90;99.90;;;;;;4959166;28;20208;-77
2021/05/19 09:11:56;;;;;;;0.80;0.80;;;12.00;99.90;;;;;;4958630;28;20618;-77
2021/05/19 09:14:24;;;;;;;0.77;0.77;;;12.10;99.90;;;;;;4960753;28;20275;-78
2021/05/19 09:16:52;;;;;;;0.60;0.60;;;12.40;99.90;;;;;;4960680;28;20229;-78
2021/05/19 09:19:32;;;;;;;0.80;0.80;;;12.40;99.90;;;;;;4959461;28;20205;-76
2021/05/19 09:21:59;;;;;;;0.80;0.80;;;12.40;99.90;;;;;;4958677;28;20205;-78
2021/05/19 09:24:37;;;;;;;0.70;0.70;;;12.40;99.90;;;;;;4959078;28;20450;-78
2021/05/19 09:27:05;;;;;;;0.70;0.70;;;12.40;99.90;;;;;;4959706;28;20229;-76
2021/05/19 09:29:35;;;;;;;0.70;0.70;;;12.40;99.90;;;;;;4959233;28;20678;-78
2021/05/19 09:32:05;;;;;;;0.70;0.70;;;12.30;99.90;;;;;;4957817;28;20251;-77
2021/05/19 09:34:35;;;;;;;0.68;0.68;;;12.50;99.90;;;;;;4958107;28;20229;-78
2021/05/19 09:37:18;;;;;;;0.70;0.70;;;12.50;99.90;;;;;;4958715;28;20208;-78
2021/05/19 09:39:55;;;;;;;0.70;0.70;;;12.60;99.90;;;;;;4959048;28;20211;-78
2021/05/19 09:42:24;;;;;;;0.70;0.70;;;12.80;99.90;;;;;;4959095;28;20244;-76
2021/05/19 09:44:55;;;;;;;0.63;0.63;;;13.00;99.90;;;;;;4958704;28;20710;-77
2021/05/19 09:47:40;;;;;;;0.60;0.60;;;13.10;99.90;;;;;;4958896;28;20229;-78
2021/05/19 09:50:10;;;;;;;0.70;0.70;;;13.20;99.90;;;;;;4958629;28;20202;-78
2021/05/19 09:52:37;;;;;;;0.50;0.50;;;13.40;99.90;;;;;;4958420;28;20557;-78
2021/05/19 09:55:10;;;;;;;0.60;0.60;;;13.50;99.90;;;;;;4957868;28;20237;-77
2021/05/19 09:57:53;;;;;;;0.50;0.50;;;13.80;99.90;;;;;;4958540;28;20205;-77
2021/05/19 10:00:24;;;;;;;0.70;0.70;;;;;;;;;;4958209;28;20232;-77
2021/05/19 10:02:53;;;;;;;0.70;0.70;;;14.20;99.90;;;;;;4958029;29;20209;-76
2021/05/19 10:05:23;;;;;;;0.60;0.60;;;14.60;99.90;;;;;;4958147;28;20226;-78
2021/05/19 10:07:53;;;;;;;0.70;0.70;;;14.90;99.90;;;;;;4959084;28;20241;-77
2021/05/19 10:10:21;;;;;;;0.60;0.60;;;;;;;;;;4959043;28;20209;-78
2021/05/19 10:12:49;;;;;;;0.63;0.63;;;;;;;;;;4959175;29;20670;-77
2021/05/19 10:15:20;;;;;;;0.60;0.60;;;;;;;;;;4958476;28;20229;-78
2021/05/19 10:17:50;;;;;;;0.68;0.68;;;;;;;;;;4957766;28;20209;-78
2021/05/19 10:20:21;;;;;;;0.60;0.60;;;;;;;;;;4957804;29;20201;-76
2021/05/19 10:22:49;;;;;;;0.60;0.60;;;;;;;;;;4957983;28;20209;-76
2021/05/19 10:25:33;;;;;;;0.50;0.50;;;;;;;;;;4957733;28;20295;-76
2021/05/19 10:28:02;;;;;;;0.50;0.50;;;;;;;;;;4957270;29;20659;-78
2021/05/19 10:30:39;;;;;;;0.68;0.68;;;15.00;99.90;;;;;;4957690;29;20318;-77
2021/05/19 10:33:28;;;;;;;0.50;0.50;;;14.70;99.90;;;;;;4954859;28;20205;-76
2021/05/19 10:35:55;;;;;;;0.68;0.68;;;14.20;99.90;;;;;;4956249;28;20218;-76
2021/05/19 10:38:26;;;;;;;0.60;0.60;;;;;;;;;;4956837;28;20220;-76
2021/05/19 10:40:55;;;;;;;0.70;0.70;;;13.40;99.90;;;;;;4957814;28;20223;-77
2021/05/19 10:43:42;;;;;;;0.80;0.80;;;13.00;99.90;;;;;;4958163;28;20209;-77
2021/05/19 10:46:12;;;;;;;0.57;0.57;;;12.80;99.90;;;;;;4958179;28;20694;-76
2021/05/19 10:48:40;;;;;;;0.80;0.80;;;12.60;99.90;;;;;;4955135;28;20216;-77
2021/05/19 10:51:34;;;;;;;0.70;0.70;;;12.70;99.90;;;;;;4955330;28;20220;-77
2021/05/19 11:00:16;;;;;;;0.80;0.80;;;12.70;99.90;;;;;;4959816;28;20209;-76
2021/05/19 11:03:09;;;;;;;0.60;0.60;;;12.70;99.90;;;;;;4944147;28;20220;-77
2021/05/19 11:05:38;;;;;;;0.60;0.60;;;12.90;99.90;;;;;;4959953;28;20308;-78
2021/05/19 11:08:22;;;;;;;0.60;0.60;;;13.00;99.90;;;;;;4957636;28;20198;-77
2021/05/19 11:10:52;;;;;;;0.60;0.60;;;13.20;99.90;;;;;;4958054;28;20329;-77
2021/05/19 11:13:21;;;;;;;0.70;0.70;;;13.50;99.90;;;;;;4958183;28;20201;-77
2021/05/19 11:15:58;;;;;;;0.70;0.70;;;13.40;99.90;;;;;;4957295;28;20285;-78
2021/05/19 11:19:01;;;;;;;0.70;0.70;;;13.60;99.90;;;;;;4957681;28;20208;-78
2021/05/19 11:21:29;;;;;;;0.50;0.50;;;13.70;99.90;;;;;;4959319;28;20209;-77
2021/05/19 11:24:02;;;;;;;0.63;0.63;;;13.60;99.90;;;;;;4961615;28;20698;-77
2021/05/19 11:26:39;;;;;;;0.60;0.60;;;13.70;99.90;;;;;;4956760;28;20225;-78
2021/05/19 11:29:08;;;;;;;0.60;0.60;;;14.00;99.90;;;;;;4957024;28;20209;-78
2021/05/19 11:31:40;;;;;;;0.60;0.60;;;14.20;99.90;;;;;;4958425;28;20209;-78
2021/05/19 11:34:08;;;;;;;0.60;0.60;;;14.00;99.90;;;;;;4956395;28;20296;-78
2021/05/19 11:36:40;;;;;;;0.70;0.70;;;14.10;99.90;;;;;;4956430;28;20209;-78
2021/05/19 11:39:31;;;;;;;0.60;0.60;;;14.20;99.90;;;;;;4956291;28;20213;-78
2021/05/19 11:42:22;;;;;;;0.70;0.70;;;14.20;99.90;;;;;;4956393;28;20293;-79
2021/05/19 11:44:54;;;;;;;0.70;0.70;;;14.30;99.90;;;;;;4956768;28;20217;-78
2021/05/19 11:47:38;;;;;;;0.70;0.70;;;14.50;99.90;;;;;;4957285;28;20280;-78
2021/05/19 11:50:15;;;;;;;0.50;0.50;;;14.70;99.90;;;;;;4959420;28;20236;-77
2021/05/19 11:52:47;;;;;;;0.60;0.60;;;15.00;99.90;;;;;;4960292;28;20240;-78
2021/05/19 11:55:26;;;;;;;0.60;0.60;;;15.50;99.90;;;;;;4959677;28;20249;-76
2021/05/19 11:58:06;;;;;;;0.50;0.50;;;15.90;99.90;;;;;;4959487;28;20259;-78
2021/05/19 12:00:36;;;;;;;0.50;0.50;;;16.00;99.90;;;;;;4962481;28;20663;-76
2021/05/19 12:03:04;;;;;;;0.40;0.40;;;16.20;99.90;;;;;;4968277;28;20213;-76
2021/05/19 12:05:52;;;;;;;0.57;0.57;;;16.00;99.90;;;;;;4969090;28;20736;-75
2021/05/19 12:08:22;;;;;;;0.50;0.50;;;15.80;99.90;;;;;;4967325;28;20228;-77
2021/05/19 12:11:03;;;;;;;0.60;0.60;;;15.80;99.90;;;;;;4961898;28;20312;-78
2021/05/19 12:13:31;;;;;;;0.50;0.50;;;15.80;99.90;;;;;;4956985;28;20678;-78
2021/05/19 12:15:59;;;;;;;0.60;0.60;;;15.40;99.90;;;;;;4956247;28;20205;-77
2021/05/19 12:18:26;;;;;;;0.68;0.68;;;14.40;99.90;;;;;;4955296;28;20217;-77
2021/05/19 12:20:54;;;;;;;0.60;0.60;;;13.30;99.90;;;;;;4955758;28;20655;-78
2021/05/19 12:23:22;;;;;;;0.75;0.75;;;12.60;99.90;;;;;;4960354;28;20213;-77
2021/05/19 12:25:56;;;;;;;0.80;0.80;;;12.20;99.90;;;;;;4957013;28;20233;-78
2021/05/19 12:28:24;;;;;;;0.80;0.80;;;12.20;99.90;;;;;;4956385;28;20276;-77
2021/05/19 12:30:54;;;;;;;0.80;0.80;;;11.90;99.90;;;;;;4956434;28;20209;-78
2021/05/19 12:33:24;;;;;;;0.80;0.80;;;11.80;99.90;;;;;;4955838;28;20221;-78
2021/05/19 12:35:52;;;;;;;0.80;0.80;;;11.80;99.90;;;;;;4955541;28;20237;-78
2021/05/19 12:38:24;;;;;;;0.80;0.80;;;11.80;99.90;;;;;;4956117;28;20233;-78
2021/05/19 12:40:54;;;;;;;0.80;0.80;;;11.70;99.90;;;;;;4958102;28;20205;-78
2021/05/19 12:43:25;;;;;;;0.70;0.70;;;11.90;99.90;;;;;;4959168;28;20252;-78
2021/05/19 12:45:53;;;;;;;0.70;0.70;;;12.00;99.90;;;;;;4958719;28;20606;-77
2021/05/19 12:48:23;;;;;;;0.70;0.70;;;12.10;99.90;;;;;;4957976;28;20225;-78
2021/05/19 12:50:53;;;;;;;0.80;0.80;;;12.50;99.90;;;;;;4958312;28;20289;-78
2021/05/19 12:53:33;;;;;;;0.70;0.70;;;12.80;99.90;;;;;;4957898;28;20241;-77
2021/05/19 12:56:04;;;;;;;0.70;0.70;;;13.60;99.90;;;;;;4958843;28;20275;-78
2021/05/19 12:58:48;;;;;;;0.60;0.60;;;14.10;99.90;;;;;;4965686;28;20620;-78
2021/05/19 13:01:15;;;;;;;0.70;0.70;;;14.60;99.90;;;;;;4962658;28;20213;-78
2021/05/19 13:03:43;;;;;;;0.60;0.60;;;14.80;99.90;;;;;;4962877;28;20625;-77
2021/05/19 13:06:10;;;;;;;0.70;0.70;;;14.50;99.90;;;;;;4964107;28;20201;-78
2021/05/19 13:08:38;;;;;;;0.70;0.70;;;14.20;99.90;;;;;;4959399;29;20330;-77
2021/05/19 13:11:16;;;;;;;0.68;0.68;;;14.10;99.90;;;;;;4962268;28;20204;-77
2021/05/19 13:13:46;;;;;;;0.70;0.70;;;14.50;99.90;;;;;;4973696;28;20196;-79
2021/05/19 13:16:18;;;;;;;0.70;0.70;;;14.80;99.90;;;;;;4971201;28;20197;-77
2021/05/19 13:18:51;;;;;;;0.60;0.60;;;15.20;99.90;;;;;;4970326;28;20223;-78
2021/05/19 13:21:22;;;;;;;0.55;0.55;;;15.60;99.90;;;;;;4969833;28;20197;-79
2021/05/19 13:23:52;;;;;;;0.50;0.50;;;15.70;99.90;;;;;;4965743;28;20197;-79
2021/05/19 13:26:25;;;;;;;0.50;0.50;;;15.80;99.90;;;;;;4966098;28;20264;-79
2021/05/19 13:28:54;;;;;;;0.60;0.60;;;16.00;99.90;;;;;;4967712;28;20244;-76
2021/05/19 13:31:24;;;;;;;0.60;0.60;;;16.00;99.90;;;;;;4974419;28;20614;-77
2021/05/19 13:33:59;;;;;;;0.43;0.43;;;16.10;99.90;;;;;;4971578;28;20211;-78
2021/05/19 13:36:38;;;;;;;0.60;0.60;;;16.00;99.90;;;;;;4958309;29;20228;-78
2021/05/19 13:39:09;;;;;;;0.60;0.60;;;15.90;99.90;;;;;;4959194;29;20232;-77
2021/05/19 13:41:41;;;;;;;0.60;0.60;;;15.70;99.90;;;;;;4958948;29;20232;-77
2021/05/19 13:44:09;;;;;;;0.50;0.50;;;15.60;99.90;;;;;;4959183;28;20233;-78
2021/05/19 13:46:39;;;;;;;0.57;0.57;;;15.40;99.90;;;;;;4958746;29;20205;-78
2021/05/19 13:49:23;;;;;;;0.60;0.60;;;15.40;99.90;;;;;;4958803;29;20205;-78
2021/05/19 13:51:52;;;;;;;0.45;0.45;;;15.60;99.90;;;;;;4964729;28;20259;-78
2021/05/19 13:54:21;;;;;;;0.60;0.60;;;15.80;99.90;;;;;;4963092;28;20216;-77
2021/05/19 13:56:49;;;;;;;0.60;0.60;;;15.70;99.90;;;;;;4970315;28;20256;-79
2021/05/19 13:59:17;;;;;;;0.60;0.60;;;15.60;99.90;;;;;;4969269;28;20717;-79
2021/05/19 14:01:45;;;;;;;0.50;0.50;;;15.40;99.90;;;;;;4971458;28;20251;-78
2021/05/19 14:04:12;;;;;;;0.60;0.60;;;15.30;99.90;;;;;;4970313;28;20217;-79
2021/05/19 14:06:40;;;;;;;0.60;0.60;;;15.30;99.90;;;;;;4974909;28;20201;-78
2021/05/19 14:09:09;;;;;;;0.60;0.60;;;15.50;99.90;;;;;;4975203;28;20209;-76
2021/05/19 14:11:42;;;;;;;0.60;0.60;;;16.10;99.90;;;;;;4976324;28;20268;-76
2021/05/19 14:14:20;;;;;;;0.60;0.60;;;16.30;99.90;;;;;;4986490;28;20280;-75
2021/05/19 14:16:58;;;;;;;0.60;0.60;;;16.30;99.90;;;;;;4981126;28;20215;-78
2021/05/19 14:19:59;;;;;;;0.60;0.60;;;16.30;99.90;;;;;;4975278;28;20212;-78
2021/05/19 14:27:59;;;;;;;0.70;0.70;;;15.60;99.90;;;;;;4966973;28;20219;-78
2021/05/19 14:30:28;;;;;;;0.60;0.60;;;15.50;99.90;;;;;;4967022;28;20205;-78
2021/05/19 14:32:55;;;;;;;0.40;0.40;;;15.70;99.90;;;;;;4968234;28;20271;-77
2021/05/19 14:35:41;;;;;;;0.60;0.60;;;15.80;99.90;;;;;;4969765;28;20275;-78
2021/05/19 15:01:02;;;;;;;0.50;0.50;;;17.20;99.90;;;;;;4968125;28;20200;-76
2021/05/19 15:03:30;;;;;;;0.40;0.40;;;17.30;98.80;;;;;;4965368;28;20284;-77
2021/05/19 15:05:58;;;;;;;0.40;0.40;;;17.10;99.90;;;;;;4965768;28;20276;-76
2021/05/19 15:08:25;;;;;;;0.50;0.50;;;17.60;99.90;;;;;;4968108;28;20220;-78
2021/05/19 15:10:52;;;;;;;0.40;0.40;;;17.30;99.90;;;;;;4965930;28;20733;-78
2021/05/19 15:13:20;;;;;;;0.50;0.50;;;17.10;99.90;;;;;;4965479;28;20200;-77
2021/05/19 15:15:47;;;;;;;0.40;0.40;;;16.90;97.80;;;;;;4967688;28;20216;-78
2021/05/19 15:18:14;;;;;;;0.45;0.45;;;16.80;99.90;;;;;;4966554;28;20197;-78
2021/05/19 15:20:43;;;;;;;0.50;0.50;;;16.70;99.40;;;;;;4966215;28;20741;-79
2021/05/19 15:23:10;;;;;;;0.50;0.50;;;16.70;99.90;;;;;;4968291;28;20198;-78
2021/05/19 15:25:38;;;;;;;0.60;0.60;;;16.60;99.30;;;;;;4969813;28;20225;-78
2021/05/19 15:28:16;;;;;;;0.50;0.50;;;16.50;98.90;;;;;;4973111;28;20225;-77
2021/05/19 15:30:44;;;;;;;0.40;0.40;;;16.50;97.90;;;;;;4970080;28;20206;-78
2021/05/19 15:33:11;;;;;;;0.50;0.50;;;16.50;99.90;;;;;;4973080;28;20220;-78
2021/05/19 15:35:38;;;;;;;0.60;0.60;;;16.50;99.80;;;;;;4968274;28;20221;-77
2021/05/19 15:38:08;;;;;;;0.60;0.60;;;16.60;99.90;;;;;;4965191;28;20249;-78
2021/05/19 15:40:35;;;;;;;0.40;0.40;;;16.50;98.70;;;;;;4970613;28;20701;-77
2021/05/19 15:43:05;;;;;;;0.40;0.40;;;16.50;98.50;;;;;;4970932;28;20200;-77
2021/05/19 15:45:33;;;;;;;0.50;0.50;;;16.70;99.00;;;;;;4964855;28;20220;-78
2021/05/19 15:48:02;;;;;;;0.50;0.50;;;16.70;99.70;;;;;;4964152;28;20220;-78
2021/05/19 15:50:30;;;;;;;0.40;0.40;;;16.90;98.50;;;;;;4965759;28;20769;-78
2021/05/19 15:52:58;;;;;;;0.50;0.50;;;16.90;98.90;;;;;;4965301;28;20193;-77
2021/05/19 15:55:27;;;;;;;0.40;0.40;;;16.80;98.30;;;;;;4958750;28;20226;-78
2021/05/19 15:57:55;;;;;;;0.60;0.60;;;16.70;97.50;;;;;;4956027;29;20475;-77
2021/05/19 16:00:23;;;;;;;0.40;0.40;;;16.60;96.60;;;;;;4957819;29;20252;-78
2021/05/19 16:02:51;;;;;;;0.50;0.50;;;16.50;96.00;;;;;;4954912;29;20272;-77
2021/05/19 16:05:19;;;;;;;0.50;0.50;;;16.50;97.40;;;;;;4954006;28;20229;-77
2021/05/19 16:07:46;;;;;;;0.50;0.50;;;16.80;98.60;;;;;;4955374;28;20268;-77
2021/05/19 16:10:14;;;;;;;0.50;0.50;;;16.80;97.80;;;;;;4955335;29;20197;-75
2021/05/19 16:12:43;;;;;;;0.50;0.50;;;17.20;97.00;;;;;;4976383;28;20205;-78
2021/05/19 16:15:11;;;;;;;0.50;0.50;;;17.30;97.40;;;;;;4978133;28;20719;-79
2021/05/19 16:17:39;;;;;;;0.50;0.50;;;17.40;97.40;;;;;;4980010;28;20610;-78
2021/05/19 16:20:10;;;;;;;0.50;0.50;;;17.50;96.50;;;;;;4977919;28;20283;-77
2021/05/19 16:22:38;;;;;;;0.40;0.40;;;17.70;99.90;;;;;;4978759;28;20267;-78
2021/05/19 16:25:07;;;;;;;0.50;0.50;;;17.80;95.50;;;;;;4978040;28;20255;-78
2021/05/19 16:27:34;;;;;;;0.50;0.50;;;18.30;91.60;;;;;;4977341;28;20209;-78
2021/05/19 16:30:46;;;;;;;0.40;0.40;;;18.70;90.70;;;;;;4976995;28;20213;-78
2021/05/19 16:34:13;;;;;;;0.40;0.40;;;18.90;90.00;;;;;;4976449;28;20208;-77
2021/05/19 16:36:46;;;;;;;0.40;0.40;;;19.70;84.20;;;;;;4935611;29;20807;-77
2021/05/19 16:39:16;;;;;;;0.40;0.40;;;20.30;80.60;;;;;;4976448;28;20666;-78
2021/05/19 16:41:43;;;;;;;0.40;0.40;;;20.60;78.20;;;;;;4977040;28;20548;-79
2021/05/19 16:44:12;;;;;;;0.40;0.40;;;20.70;84.40;;;;;;4977514;28;20221;-78
2021/05/19 16:46:40;;;;;;;0.40;0.40;;;20.30;75.70;;;;;;4968035;28;20214;-78
2021/05/19 16:49:09;;;;;;;0.30;0.30;;;20.10;75.80;;;;;;4957395;29;20225;-78
2021/05/19 16:51:50;;;;;;;0.50;0.50;;;20.20;76.50;;;;;;4968813;28;20252;-77
2021/05/19 16:54:20;;;;;;;0.45;0.45;;;20.80;73.60;;;;;;4976007;28;20784;-77
2021/05/19 16:56:50;;;;;;;0.40;0.40;;;21.60;72.20;;;;;;4976443;28;20192;-77
2021/05/19 16:59:19;;;;;;;0.40;0.40;;;22.20;67.50;;;;;;4977045;28;20189;-78
2021/05/19 17:04:51;;;;;;;0.40;0.40;;;;;;;;;;4975870;28;20220;-77
2021/05/19 17:07:40;;;;;;;0.40;0.40;;;22.40;66.30;;;;;;4975509;28;20235;-79
2021/05/19 17:10:09;;;;;;;0.40;0.40;;;23.50;76.90;;;;;;4977254;28;20232;-78
2021/05/19 17:12:36;;;;;;;0.30;0.30;;;23.40;62.60;;;;;;4976942;28;20200;-77
2021/05/19 17:15:04;;;;;;;0.30;0.30;;;23.20;63.20;;;;;;4975759;28;20220;-77
2021/05/19 17:17:32;;;;;;;0.30;0.30;;;22.90;62.50;;;;;;4971535;28;20654;-77
2021/05/19 17:20:00;;;;;;;0.40;0.40;;;22.70;61.00;;;;;;4968262;28;20185;-78
2021/05/19 17:22:27;;;;;;;0.40;0.40;;;22.70;62.00;;;;;;4964712;28;20268;-78
2021/05/19 17:24:55;;;;;;;0.40;0.40;;;22.80;63.40;;;;;;4967582;28;20225;-78
2021/05/19 17:27:24;;;;;;;0.30;0.30;;;22.70;63.00;;;;;;4958706;28;20202;-77
2021/05/19 17:29:52;;;;;;;0.30;0.30;;;22.70;63.10;;;;;;4965727;28;20201;-78
2021/05/19 17:32:20;;;;;;;0.30;0.30;;;22.10;63.00;;;;;;4966425;28;20247;-79
2021/05/19 17:34:48;;;;;;;0.30;0.30;;;21.90;65.50;;;;;;4973934;28;20217;-79
2021/05/19 17:37:16;;;;;;;0.30;0.30;;;20.40;82.80;;;;;;4975664;28;20235;-79
2021/05/19 17:39:43;;;;;;;0.40;0.40;;;20.20;67.50;;;;;;4975504;28;20200;-77
2021/05/19 17:42:12;;;;;;;0.32;0.32;;;19.70;70.10;;;;;;4974746;28;20212;-78
2021/05/19 17:44:40;;;;;;;0.40;0.40;;;18.40;94.10;;;;;;4974928;28;20311;-79
2021/05/19 17:47:09;;;;;;;0.30;0.30;;;18.50;75.90;;;;;;4974706;28;20285;-77
2021/05/19 17:49:36;;;;;;;0.40;0.40;;;18.00;77.90;;;;;;4975216;28;20236;-78
2021/05/19 17:52:04;;;;;;;0.50;0.50;;;17.60;81.50;;;;;;4974935;28;20209;-74
2021/05/19 17:54:32;;;;;;;0.50;0.50;;;17.40;82.50;;;;;;4968288;28;20229;-74